createdAt,value
2022-08-28T00:02:03.382Z,17.85
2022-08-28T00:04:30.637Z,17.69
2022-08-28T00:06:57.901Z,17.71
2022-08-28T00:09:25.103Z,17.63
2022-08-28T00:11:52.177Z,17.75
2022-08-28T00:14:21.163Z,17.66
2022-08-28T00:16:49.856Z,17.60
2022-08-28T00:19:19.854Z,17.49
2022-08-28T00:21:47.840Z,17.53
2022-08-28T00:24:15.051Z,17.33
2022-08-28T00:27:01.222Z,17.17
2022-08-28T00:29:29.292Z,17.31
2022-08-28T00:31:56.712Z,17.36
2022-08-28T00:34:28.537Z,17.17
2022-08-28T00:37:01.194Z,17.12
2022-08-28T00:39:28.674Z,17.07
2022-08-28T00:41:57.993Z,17.11
2022-08-28T00:44:27.904Z,16.93
2022-08-28T00:46:59.133Z,16.83
2022-08-28T00:49:45.972Z,16.84
2022-08-28T00:52:15.419Z,16.78
2022-08-28T00:55:03.615Z,16.73
2022-08-28T00:57:46.648Z,16.75
2022-08-28T01:00:30.042Z,16.70
2022-08-28T01:02:58.417Z,16.68
2022-08-28T01:05:26.624Z,16.74
2022-08-28T01:07:54.195Z,16.63
2022-08-28T01:10:24.870Z,16.56
2022-08-28T01:12:54.454Z,16.55
2022-08-28T01:15:30.115Z,16.52
2022-08-28T01:18:09.310Z,16.45
2022-08-28T01:20:42.634Z,16.40
2022-08-28T01:23:50.239Z,16.35
2022-08-28T01:26:17.815Z,16.39
2022-08-28T01:28:45.552Z,16.39
2022-08-28T01:31:15.668Z,16.25
2022-08-28T01:33:44.964Z,16.17
2022-08-28T01:36:14.135Z,16.18
2022-08-28T01:38:43.650Z,16.19
2022-08-28T01:41:13.890Z,16.15
2022-08-28T01:43:42.984Z,16.11
2022-08-28T01:46:12.266Z,16.17
2022-08-28T01:48:44.140Z,16.05
2022-08-28T01:51:13.152Z,16.11
2022-08-28T01:53:41.728Z,16.13
2022-08-28T01:56:16.339Z,16.04
2022-08-28T01:58:44.516Z,16.03
2022-08-28T02:01:14.714Z,15.98
2022-08-28T02:03:45.307Z,15.95
2022-08-28T02:06:13.777Z,15.98
2022-08-28T02:08:40.930Z,15.88
2022-08-28T02:11:09.167Z,15.98
2022-08-28T02:13:37.437Z,15.90
2022-08-28T02:16:07.044Z,15.89
2022-08-28T02:18:34.270Z,15.88
2022-08-28T02:21:10.402Z,15.90
2022-08-28T02:23:43.650Z,15.84
2022-08-28T02:26:12.845Z,15.79
2022-08-28T02:28:40.229Z,15.85
2022-08-28T02:31:10.427Z,15.80
2022-08-28T02:33:40.698Z,15.75
2022-08-28T02:36:10.730Z,15.70
2022-08-28T02:38:38.985Z,15.75
2022-08-28T02:41:07.377Z,15.82
2022-08-28T02:43:34.715Z,15.73
2022-08-28T02:46:02.258Z,15.61
2022-08-28T02:48:32.944Z,15.70
2022-08-28T02:51:03.653Z,15.63
2022-08-28T02:53:30.783Z,15.62
2022-08-28T02:56:00.599Z,15.63
2022-08-28T02:58:27.690Z,15.52
2022-08-28T03:00:54.868Z,15.47
2022-08-28T03:03:21.924Z,15.51
2022-08-28T03:05:50.008Z,15.51
2022-08-28T03:08:17.739Z,15.43
2022-08-28T03:10:44.781Z,15.32
2022-08-28T03:13:22.960Z,15.23
2022-08-28T03:15:55.847Z,15.23
2022-08-28T03:18:25.638Z,15.19
2022-08-28T03:20:54.256Z,15.18
2022-08-28T03:23:27.277Z,15.14
2022-08-28T03:26:05.174Z,15.07
2022-08-28T03:28:46.344Z,15.05
2022-08-28T03:31:20.428Z,15.03
2022-08-28T03:33:48.536Z,15.10
2022-08-28T03:36:21.454Z,15.01
2022-08-28T03:38:50.561Z,15.01
2022-08-28T03:41:22.024Z,14.99
2022-08-28T03:43:50.058Z,14.91
2022-08-28T03:46:23.833Z,14.84
2022-08-28T03:48:52.638Z,14.81
2022-08-28T03:51:29.735Z,14.83
2022-08-28T03:53:58.595Z,14.82
2022-08-28T03:56:28.995Z,14.79
2022-08-28T03:59:00.203Z,14.81
2022-08-28T04:01:28.036Z,14.68
2022-08-28T04:03:55.951Z,14.62
2022-08-28T04:06:23.310Z,14.63
2022-08-28T04:08:51.118Z,14.57
2022-08-28T04:11:18.630Z,14.52
2022-08-28T04:13:45.919Z,14.56
2022-08-28T04:16:19.014Z,14.49
2022-08-28T04:18:49.426Z,14.51
2022-08-28T04:21:21.402Z,14.43
2022-08-28T04:23:48.551Z,14.47
2022-08-28T04:26:23.321Z,14.43
2022-08-28T04:28:50.981Z,14.42
2022-08-28T04:31:32.091Z,14.37
2022-08-28T04:34:06.740Z,14.43
2022-08-28T04:36:34.398Z,14.43
2022-08-28T04:39:05.407Z,14.40
2022-08-28T04:41:32.682Z,14.41
2022-08-28T04:43:59.730Z,14.36
2022-08-28T04:46:26.918Z,14.39
2022-08-28T04:48:58.807Z,14.32
2022-08-28T04:51:26.407Z,14.39
2022-08-28T04:53:53.648Z,14.43
2022-08-28T04:56:20.649Z,14.39
2022-08-28T04:58:48.184Z,14.34
2022-08-28T05:01:20.207Z,14.34
2022-08-28T05:03:52.329Z,14.36
2022-08-28T05:06:19.459Z,14.46
2022-08-28T05:08:46.450Z,14.48
2022-08-28T05:11:34.566Z,14.45
2022-08-28T05:14:12.744Z,14.48
2022-08-28T05:16:50.260Z,14.54
2022-08-28T05:19:19.898Z,14.48
2022-08-28T05:21:48.015Z,14.63
2022-08-28T05:24:15.183Z,14.58
2022-08-28T05:26:42.436Z,14.66
2022-08-28T05:29:11.184Z,14.83
2022-08-28T05:31:40.776Z,14.84
2022-08-28T05:34:10.346Z,15.09
2022-08-28T05:36:38.740Z,14.92
2022-08-28T05:39:11.810Z,15.04
2022-08-28T05:41:42.255Z,15.24
2022-08-28T05:44:12.560Z,15.18
2022-08-28T05:46:42.553Z,15.37
2022-08-28T05:49:10.473Z,15.54
2022-08-28T05:51:41.344Z,15.56
2022-08-28T05:54:08.828Z,15.85
2022-08-28T05:56:39.414Z,15.60
2022-08-28T05:59:08.130Z,15.66
2022-08-28T06:02:00.989Z,15.42
2022-08-28T06:04:31.221Z,15.44
2022-08-28T06:06:58.322Z,15.56
2022-08-28T06:09:29.598Z,15.49
2022-08-28T06:11:59.947Z,15.62
2022-08-28T06:14:27.948Z,15.70
2022-08-28T06:16:57.458Z,15.33
2022-08-28T06:19:28.315Z,15.59
2022-08-28T06:21:59.067Z,15.74
2022-08-28T06:24:28.010Z,15.62
2022-08-28T06:26:57.470Z,15.59
2022-08-28T06:29:27.695Z,15.59
2022-08-28T06:31:58.513Z,15.57
2022-08-28T06:34:27.167Z,15.81
2022-08-28T06:36:55.123Z,15.66
2022-08-28T06:39:22.830Z,15.90
2022-08-28T06:41:50.041Z,15.81
2022-08-28T06:44:20.559Z,15.80
2022-08-28T06:46:53.975Z,16.06
2022-08-28T06:49:21.521Z,16.02
2022-08-28T06:51:49.180Z,16.16
2022-08-28T06:54:22.146Z,16.30
2022-08-28T06:56:52.541Z,16.11
2022-08-28T06:59:19.640Z,16.24
2022-08-28T07:01:47.080Z,16.26
2022-08-28T07:04:14.793Z,16.44
2022-08-28T07:06:46.814Z,16.49
2022-08-28T07:09:14.493Z,16.56
2022-08-28T07:11:48.481Z,16.48
2022-08-28T07:14:15.525Z,16.51
2022-08-28T07:16:44.608Z,16.70
2022-08-28T07:19:13.403Z,16.94
2022-08-28T07:21:44.238Z,16.93
2022-08-28T07:24:14.696Z,16.87
2022-08-28T07:26:43.642Z,16.93
2022-08-28T07:29:11.700Z,17.19
2022-08-28T07:31:46.605Z,17.10
2022-08-28T07:34:15.777Z,17.43
2022-08-28T07:36:43.455Z,17.58
2022-08-28T07:39:13.018Z,17.35
2022-08-28T07:41:42.928Z,17.54
2022-08-28T07:44:33.775Z,17.54
2022-08-28T07:47:05.848Z,17.78
2022-08-28T07:49:34.942Z,17.99
2022-08-28T07:52:03.435Z,17.83
2022-08-28T07:54:30.401Z,18.02
2022-08-28T07:56:57.565Z,18.21
2022-08-28T07:59:24.721Z,18.43
2022-08-28T08:01:52.153Z,18.21
2022-08-28T08:04:22.267Z,18.29
2022-08-28T08:06:55.613Z,18.81
2022-08-28T08:09:25.142Z,19.01
2022-08-28T08:11:52.323Z,19.20
2022-08-28T08:14:19.508Z,19.25
2022-08-28T08:16:47.931Z,18.94
2022-08-28T08:19:16.949Z,18.67
2022-08-28T08:21:48.314Z,18.51
2022-08-28T08:24:21.112Z,18.62
2022-08-28T08:27:00.354Z,18.81
2022-08-28T08:29:37.353Z,18.50
2022-08-28T08:32:12.289Z,18.86
2022-08-28T08:34:43.443Z,18.85
2022-08-28T08:37:11.797Z,19.21
2022-08-28T08:39:39.966Z,19.24
2022-08-28T08:42:23.559Z,19.17
2022-08-28T08:44:53.826Z,19.22
2022-08-28T08:47:49.176Z,18.96
2022-08-28T08:50:21.457Z,18.73
2022-08-28T08:53:45.046Z,18.84
2022-08-28T08:56:17.545Z,18.88
2022-08-28T08:58:51.379Z,19.44
2022-08-28T09:01:39.609Z,19.52
2022-08-28T09:04:40.287Z,20.30
2022-08-28T09:07:19.854Z,20.23
2022-08-28T09:09:56.359Z,20.16
2022-08-28T09:12:28.892Z,20.16
2022-08-28T09:15:13.313Z,20.19
2022-08-28T09:17:48.098Z,20.36
2022-08-28T09:20:33.225Z,20.45
2022-08-28T09:23:00.918Z,20.40
2022-08-28T09:25:44.432Z,20.68
2022-08-28T09:28:26.442Z,20.62
2022-08-28T09:31:19.604Z,20.74
2022-08-28T09:33:51.338Z,20.73
2022-08-28T09:36:36.419Z,21.11
2022-08-28T09:39:33.498Z,21.20
2022-08-28T09:42:42.086Z,21.00
2022-08-28T09:45:24.451Z,21.08
2022-08-28T09:47:56.336Z,21.07
2022-08-28T09:50:44.564Z,21.27
2022-08-28T09:53:11.925Z,21.50
2022-08-28T09:56:16.436Z,21.84
2022-08-28T09:58:51.368Z,21.65
2022-08-28T10:01:37.237Z,21.89
2022-08-28T10:04:16.907Z,22.08
2022-08-28T10:07:03.895Z,21.29
2022-08-28T10:10:12.573Z,21.43
2022-08-28T10:13:37.978Z,21.11
2022-08-28T10:16:47.213Z,20.91
2022-08-28T10:19:51.019Z,21.16
2022-08-28T10:23:04.543Z,21.23
2022-08-28T10:25:50.214Z,21.31
2022-08-28T10:28:29.339Z,21.24
2022-08-28T10:31:32.837Z,21.52
2022-08-28T10:34:31.606Z,21.84
2022-08-28T10:37:47.944Z,21.87
2022-08-28T10:40:46.606Z,22.23
2022-08-28T10:43:38.786Z,22.16
2022-08-28T10:46:28.208Z,22.40
2022-08-28T10:49:29.354Z,21.99
2022-08-28T10:52:22.984Z,22.19
2022-08-28T10:55:00.855Z,22.18
2022-08-28T10:57:53.042Z,22.16
2022-08-28T11:00:23.687Z,21.77
2022-08-28T11:02:59.593Z,22.32
2022-08-28T11:05:34.676Z,22.43
2022-08-28T11:08:08.828Z,22.63
2022-08-28T11:10:35.884Z,22.67
2022-08-28T11:13:06.506Z,22.32
2022-08-28T11:15:37.063Z,22.60
2022-08-28T11:18:16.807Z,23.28
2022-08-28T11:21:04.057Z,22.86
2022-08-28T11:23:48.859Z,22.42
2022-08-28T11:26:52.016Z,22.81
2022-08-28T11:30:09.458Z,22.96
2022-08-28T11:32:51.545Z,23.10
2022-08-28T11:35:30.594Z,23.38
2022-08-28T11:37:58.704Z,23.23
2022-08-28T11:40:31.912Z,23.40
2022-08-28T11:43:17.076Z,23.75
2022-08-28T11:45:46.803Z,24.53
2022-08-28T11:48:26.247Z,23.71
2022-08-28T11:51:07.415Z,23.12
2022-08-28T11:53:59.840Z,22.80
2022-08-28T11:56:59.155Z,23.12
2022-08-28T11:59:34.972Z,23.75
2022-08-28T12:02:39.933Z,23.66
2022-08-28T12:05:15.826Z,24.40
2022-08-28T12:07:47.337Z,23.95
2022-08-28T12:10:21.261Z,23.78
2022-08-28T12:12:48.509Z,23.14
2022-08-28T12:15:27.695Z,22.98
2022-08-28T12:18:02.815Z,23.33
2022-08-28T12:20:51.034Z,23.45
2022-08-28T12:23:24.001Z,23.17
2022-08-28T12:26:22.668Z,22.96
2022-08-28T12:29:16.442Z,23.33
2022-08-28T12:32:11.933Z,23.67
2022-08-28T12:34:46.694Z,23.63
2022-08-28T12:37:39.585Z,23.16
2022-08-28T12:40:31.438Z,23.08
2022-08-28T12:43:15.192Z,22.54
2022-08-28T12:46:00.309Z,23.54
2022-08-28T12:48:47.618Z,24.12
2022-08-28T12:51:24.713Z,24.06
2022-08-28T12:53:59.582Z,24.40
2022-08-28T12:56:36.647Z,24.37
2022-08-28T12:59:27.111Z,24.18
2022-08-28T13:02:01.020Z,23.49
2022-08-28T13:04:51.995Z,23.22
2022-08-28T13:07:30.861Z,23.39
2022-08-28T13:10:06.031Z,24.03
2022-08-28T13:12:55.013Z,23.86
2022-08-28T13:15:58.507Z,23.61
2022-08-28T13:18:45.708Z,23.87
2022-08-28T13:21:33.718Z,23.99
2022-08-28T13:24:35.764Z,24.18
2022-08-28T13:27:14.056Z,24.91
2022-08-28T13:29:59.757Z,24.77
2022-08-28T13:32:30.439Z,24.37
2022-08-28T13:35:06.165Z,24.40
2022-08-28T13:37:54.253Z,23.15
2022-08-28T13:43:18.235Z,23.70
2022-08-28T13:45:48.701Z,24.11
2022-08-28T13:48:21.283Z,24.27
2022-08-28T13:51:08.617Z,24.77
2022-08-28T13:53:38.617Z,24.20
2022-08-28T13:56:06.452Z,24.84
2022-08-28T13:58:33.550Z,24.65
2022-08-28T14:01:01.463Z,23.78
2022-08-28T14:03:38.585Z,23.67
2022-08-28T14:06:14.204Z,23.40
2022-08-28T14:08:43.787Z,23.92
2022-08-28T14:11:13.429Z,24.00
2022-08-28T14:13:47.349Z,24.47
2022-08-28T14:16:26.006Z,24.78
2022-08-28T14:18:53.666Z,24.60
2022-08-28T14:21:22.236Z,24.24
2022-08-28T14:23:49.304Z,24.82
2022-08-28T14:26:16.389Z,24.24
2022-08-28T14:28:43.630Z,24.39
2022-08-28T14:31:14.370Z,23.89
2022-08-28T14:33:45.580Z,23.35
2022-08-28T14:36:23.040Z,23.38
2022-08-28T14:38:54.252Z,24.06
2022-08-28T14:41:23.616Z,23.93
2022-08-28T14:43:51.396Z,23.98
2022-08-28T14:46:35.868Z,24.21
2022-08-28T14:49:07.689Z,23.84
2022-08-28T14:51:38.034Z,23.98
2022-08-28T14:54:07.632Z,24.01
2022-08-28T14:56:35.533Z,24.43
2022-08-28T14:59:05.134Z,24.23
2022-08-28T15:01:40.327Z,24.31
2022-08-28T15:04:12.524Z,24.56
2022-08-28T15:06:42.427Z,24.14
2022-08-28T15:09:14.430Z,23.99
2022-08-28T15:11:42.693Z,24.22
2022-08-28T15:14:11.220Z,24.22
2022-08-28T15:16:43.198Z,24.44
2022-08-28T15:19:12.939Z,24.41
2022-08-28T15:21:53.547Z,24.36
2022-08-28T15:24:24.679Z,23.98
2022-08-28T15:26:52.123Z,23.85
2022-08-28T15:29:19.120Z,23.52
2022-08-28T15:31:49.279Z,23.33
2022-08-28T15:34:21.415Z,22.76
2022-08-28T15:36:55.168Z,22.90
2022-08-28T15:39:44.450Z,23.27
2022-08-28T15:42:12.002Z,23.37
2022-08-28T15:44:39.393Z,23.19
2022-08-28T15:47:06.934Z,23.41
2022-08-28T15:49:43.679Z,23.42
2022-08-28T15:52:16.194Z,23.71
2022-08-28T15:54:43.262Z,23.66
2022-08-28T15:57:10.251Z,23.31
2022-08-28T15:59:48.594Z,23.54
2022-08-28T16:02:16.519Z,23.01
2022-08-28T16:04:43.731Z,23.28
2022-08-28T16:07:11.121Z,23.18
2022-08-28T16:09:38.432Z,23.16
2022-08-28T16:12:05.883Z,22.79
2022-08-28T16:14:34.098Z,23.08
2022-08-28T16:17:05.985Z,23.45
2022-08-28T16:19:42.156Z,22.92
2022-08-28T16:22:11.110Z,23.17
2022-08-28T16:24:38.388Z,23.11
2022-08-28T16:27:06.371Z,23.16
2022-08-28T16:29:37.292Z,23.07
2022-08-28T16:32:05.465Z,23.15
2022-08-28T16:34:33.649Z,23.15
2022-08-28T16:37:01.661Z,23.13
2022-08-28T16:39:29.136Z,22.93
2022-08-28T16:41:56.211Z,22.88
2022-08-28T16:44:26.300Z,23.43
2022-08-28T16:46:55.187Z,23.70
2022-08-28T16:49:23.575Z,24.90
2022-08-28T16:51:50.917Z,25.43
2022-08-28T16:54:18.901Z,26.15
2022-08-28T16:56:46.783Z,26.24
2022-08-28T16:59:20.474Z,26.09
2022-08-28T17:01:53.158Z,26.60
2022-08-28T17:04:22.167Z,26.68
2022-08-28T17:06:49.589Z,25.41
2022-08-28T17:09:16.602Z,25.86
2022-08-28T17:11:47.417Z,25.99
2022-08-28T17:14:21.433Z,24.17
2022-08-28T17:16:49.568Z,23.69
2022-08-28T17:19:17.407Z,23.25
2022-08-28T17:22:03.376Z,23.25
2022-08-28T17:24:31.159Z,22.81
2022-08-28T17:27:00.922Z,22.88
2022-08-28T17:29:31.873Z,22.60
2022-08-28T17:31:58.964Z,22.51
2022-08-28T17:34:30.095Z,22.22
2022-08-28T17:36:57.720Z,22.26
2022-08-28T17:39:25.443Z,22.09
2022-08-28T17:41:52.599Z,22.08
2022-08-28T17:44:20.134Z,22.06
2022-08-28T17:46:47.317Z,22.04
2022-08-28T17:49:14.534Z,21.90
2022-08-28T17:51:42.768Z,21.74
2022-08-28T17:54:18.290Z,21.76
2022-08-28T17:56:46.483Z,21.61
2022-08-28T17:59:15.121Z,21.45
2022-08-28T18:01:44.662Z,21.49
2022-08-28T18:04:13.360Z,21.37
2022-08-28T18:06:40.876Z,21.32
2022-08-28T18:09:09.425Z,21.23
2022-08-28T18:11:37.491Z,21.12
2022-08-28T18:14:05.198Z,21.06
2022-08-28T18:16:34.099Z,21.00
2022-08-28T18:19:02.080Z,20.98
2022-08-28T18:21:29.347Z,20.80
2022-08-28T18:23:56.963Z,20.72
2022-08-28T18:26:24.401Z,20.70
2022-08-28T18:28:51.591Z,20.64
2022-08-28T18:31:19.172Z,20.56
2022-08-28T18:33:46.713Z,20.49
2022-08-28T18:36:16.512Z,20.39
2022-08-28T18:38:45.028Z,20.38
2022-08-28T18:41:12.199Z,20.30
2022-08-28T18:43:39.353Z,20.23
2022-08-28T18:46:09.234Z,20.19
2022-08-28T18:48:37.973Z,20.09
2022-08-28T18:51:11.254Z,19.93
2022-08-28T18:53:39.052Z,19.97
2022-08-28T18:56:11.026Z,19.83
2022-08-28T18:58:41.790Z,19.82
2022-08-28T19:01:09.723Z,19.81
2022-08-28T19:03:37.299Z,19.75
2022-08-28T19:06:06.349Z,19.71
2022-08-28T19:08:35.354Z,19.56
2022-08-28T19:11:11.243Z,19.53
2022-08-28T19:13:39.656Z,19.56
2022-08-28T19:16:07.380Z,19.43
2022-08-28T19:18:34.760Z,19.40
2022-08-28T19:21:14.934Z,19.32
2022-08-28T19:23:55.790Z,19.33
2022-08-28T19:26:25.632Z,19.31
2022-08-28T19:28:53.300Z,19.23
2022-08-28T19:31:20.678Z,19.13
2022-08-28T19:33:47.942Z,19.06
2022-08-28T19:36:15.583Z,19.04
2022-08-28T19:38:43.254Z,18.99
2022-08-28T19:41:12.096Z,18.93
2022-08-28T19:43:43.229Z,18.85
2022-08-28T19:46:18.723Z,18.82
2022-08-28T19:48:48.616Z,18.76
2022-08-28T19:51:22.201Z,18.64
2022-08-28T19:53:57.280Z,18.61
2022-08-28T19:56:29.855Z,18.60
2022-08-28T19:58:59.511Z,18.60
2022-08-28T20:01:30.105Z,18.52
2022-08-28T20:03:59.807Z,18.45
2022-08-28T20:06:30.295Z,18.41
2022-08-28T20:08:57.914Z,18.41
2022-08-28T20:11:25.441Z,18.25
2022-08-28T20:14:04.462Z,18.28
2022-08-28T20:16:36.897Z,18.20
2022-08-28T20:19:07.375Z,18.20
2022-08-28T20:21:37.083Z,18.17
2022-08-28T20:24:09.024Z,18.12
2022-08-28T20:26:36.858Z,18.05
2022-08-28T20:29:06.443Z,18.06
2022-08-28T20:31:33.900Z,18.00
2022-08-28T20:34:01.222Z,17.95
2022-08-28T20:36:28.222Z,17.94
2022-08-28T20:38:55.225Z,17.97
2022-08-28T20:41:22.790Z,17.92
2022-08-28T20:43:50.232Z,17.85
2022-08-28T20:46:17.624Z,17.83
2022-08-28T20:48:45.160Z,17.75
2022-08-28T20:51:12.600Z,17.75
2022-08-28T20:53:40.210Z,17.79
2022-08-28T20:56:10.058Z,17.63
2022-08-28T20:58:37.747Z,17.62
2022-08-28T21:01:05.665Z,17.56
2022-08-28T21:03:32.876Z,17.57
2022-08-28T21:05:59.986Z,17.55
2022-08-28T21:08:27.130Z,17.47
2022-08-28T21:10:54.174Z,17.39
2022-08-28T21:13:21.778Z,17.36
2022-08-28T21:15:48.822Z,17.36
2022-08-28T21:18:16.614Z,17.29
2022-08-28T21:20:44.401Z,17.26
2022-08-28T21:23:11.446Z,17.24
2022-08-28T21:25:41.487Z,17.25
2022-08-28T21:28:08.951Z,17.21
2022-08-28T21:30:36.085Z,17.22
2022-08-28T21:33:03.343Z,17.10
2022-08-28T21:35:30.492Z,17.11
2022-08-28T21:37:57.710Z,17.08
2022-08-28T21:40:25.136Z,17.05
2022-08-28T21:42:52.295Z,16.94
2022-08-28T21:45:19.744Z,16.94
2022-08-28T21:47:46.740Z,16.95
2022-08-28T21:50:14.516Z,16.88
2022-08-28T21:52:41.508Z,16.88
2022-08-28T21:55:13.937Z,16.78
2022-08-28T21:57:41.035Z,16.76
2022-08-28T22:00:17.982Z,16.85
2022-08-28T22:02:46.422Z,16.81
2022-08-28T22:05:14.189Z,16.81
2022-08-28T22:07:41.571Z,16.79
2022-08-28T22:10:09.790Z,16.80
2022-08-28T22:12:36.830Z,16.74
2022-08-28T22:15:05.509Z,16.73
2022-08-28T22:17:32.510Z,16.73
2022-08-28T22:19:59.500Z,16.64
2022-08-28T22:22:45.342Z,16.55
2022-08-28T22:25:12.414Z,16.52
2022-08-28T22:27:39.665Z,16.50
2022-08-28T22:30:07.495Z,16.42
2022-08-28T22:32:34.487Z,16.36
2022-08-28T22:35:01.629Z,16.38
2022-08-28T22:37:28.714Z,16.39
2022-08-28T22:39:55.939Z,16.33
2022-08-28T22:42:23.197Z,16.24
2022-08-28T22:44:50.327Z,16.26
2022-08-28T22:47:19.038Z,16.15
2022-08-28T22:49:46.254Z,16.18
2022-08-28T22:52:13.349Z,16.06
2022-08-28T22:54:40.346Z,16.05
2022-08-28T22:57:07.637Z,16.05
2022-08-28T22:59:35.379Z,15.96
2022-08-28T23:02:03.716Z,15.98
2022-08-28T23:04:31.129Z,15.91
2022-08-28T23:06:58.155Z,15.90
2022-08-28T23:09:25.120Z,15.91
2022-08-28T23:11:52.197Z,15.92
2022-08-28T23:14:19.473Z,15.82
2022-08-28T23:16:46.663Z,15.82
2022-08-28T23:19:14.007Z,15.79
2022-08-28T23:21:43.660Z,15.77
2022-08-28T23:24:16.100Z,15.66
2022-08-28T23:26:45.612Z,15.63
2022-08-28T23:29:13.557Z,15.61
2022-08-28T23:31:41.248Z,15.61
2022-08-28T23:34:09.252Z,15.53
2022-08-28T23:36:39.537Z,15.51
2022-08-28T23:39:10.404Z,15.47
2022-08-28T23:41:37.567Z,15.42
2022-08-28T23:44:08.778Z,15.31
2022-08-28T23:46:36.850Z,15.42
2022-08-28T23:49:08.452Z,15.38
2022-08-28T23:51:35.702Z,15.40
2022-08-28T23:54:02.705Z,15.34
2022-08-28T23:56:31.096Z,15.35
2022-08-28T23:58:58.450Z,15.28
